Time;durP1;ratioP1;P1;durP2;ratioP2;P2;SDS_P1;SDS_P2;PMS_P1;PMS_P2;Temp;Humidity;BMP_temperature;BMP_pressure;BME280_temperature;BME280_humidity;BME280_pressure;Samples;Min_cycle;Max_cycle;Signal;HPM_P1;HPM_P2
2023/07/14 00:00:27;;;;;;;;;;;;;;;14.71;68.23;95594.94;6176769;28;19921;-69
2023/07/14 00:03:28;;;;;;;;;;;;;;;14.78;68.03;95588.06;6176328;28;19929;-70
2023/07/14 00:06:34;;;;;;;;;;;;;;;14.72;68.00;95588.69;6158628;28;19931;-70
2023/07/14 00:09:36;;;;;;;;;;;;;;;14.74;68.33;95581.38;6175867;28;20004;-70
2023/07/14 00:12:37;;;;;;;;;;;;;;;14.77;67.87;95582.91;6175651;28;20240;-70
2023/07/14 00:15:40;;;;;;;;;;;;;;;14.82;67.95;95586.75;6176338;28;19922;-69
2023/07/14 00:18:43;;;;;;;;;;;;;;;14.85;68.08;95579.47;6176210;28;19922;-70
2023/07/14 00:21:49;;;;;;;;;;;;;;;14.93;67.78;95576.88;6159441;28;19922;-69
2023/07/14 00:24:50;;;;;;;;;;;;;;;15.00;67.43;95575.22;6176085;28;19968;-69
2023/07/14 00:27:55;;;;;;;;;;;;;;;15.05;67.44;95572.94;6176059;28;19925;-68
2023/07/14 00:31:01;;;;;;;;;;;;;;;15.08;67.16;95569.97;6176099;28;19922;-70
2023/07/14 00:34:04;;;;;;;;;;;;;;;15.15;67.02;95568.38;6158601;28;20012;-70
2023/07/14 00:37:06;;;;;;;;;;;;;;;15.20;67.23;95570.50;6175404;28;20411;-71
2023/07/14 00:40:12;;;;;;;;;;;;;;;15.13;67.48;95558.91;6175590;28;19929;-69
2023/07/14 00:43:21;;;;;;;;;;;;;;;15.18;67.55;95559.28;6158291;28;19922;-70
2023/07/14 00:46:25;;;;;;;;;;;;;;;15.30;67.32;95567.75;6175599;28;20372;-70
2023/07/14 00:49:35;;;;;;;;;;;;;;;15.41;67.22;95559.50;6174892;28;20353;-70
2023/07/14 00:52:41;;;;;;;;;;;;;;;15.53;66.95;95568.81;6175485;28;19930;-70
2023/07/14 00:55:43;;;;;;;;;;;;;;;15.62;66.51;95564.34;6175778;28;20020;-69
2023/07/14 00:58:45;;;;;;;;;;;;;;;15.68;66.28;95561.06;6175376;28;19929;-70
2023/07/14 01:02:09;;;;;;;;;;;;;;;15.61;66.47;95568.81;6175369;28;20416;-70
2023/07/14 01:05:12;;;;;;;;;;;;;;;15.65;66.42;95570.19;6175369;28;19926;-70
2023/07/14 01:08:13;;;;;;;;;;;;;;;15.76;66.01;95562.91;6174425;28;20004;-69
2023/07/14 01:11:20;;;;;;;;;;;;;;;15.77;66.02;95554.81;6174957;28;19926;-69
2023/07/14 01:14:26;;;;;;;;;;;;;;;15.80;65.88;95551.84;6175074;28;19922;-70
2023/07/14 01:17:30;;;;;;;;;;;;;;;15.84;66.20;95554.97;6174646;28;19922;-70
2023/07/14 01:20:38;;;;;;;;;;;;;;;15.77;66.33;95543.34;6174598;28;19922;-70
2023/07/14 01:23:48;;;;;;;;;;;;;;;15.75;66.41;95540.06;6174862;28;19921;-70
2023/07/14 01:26:53;;;;;;;;;;;;;;;15.75;66.57;95543.53;6173933;28;20069;-69
2023/07/14 01:29:59;;;;;;;;;;;;;;;15.89;66.20;95536.75;6174665;28;19926;-69
2023/07/14 01:33:06;;;;;;;;;;;;;;;15.89;65.89;95532.28;6156214;28;19929;-70
2023/07/14 01:36:08;;;;;;;;;;;;;;;15.89;65.96;95532.28;6174184;28;20411;-69
2023/07/14 01:39:14;;;;;;;;;;;;;;;15.89;65.86;95532.28;6174131;28;19922;-70
2023/07/14 01:42:19;;;;;;;;;;;;;;;15.98;66.17;95527.78;6174438;28;19922;-70
2023/07/14 01:45:23;;;;;;;;;;;;;;;15.98;65.93;95529.63;6174094;28;20016;-69
2023/07/14 01:48:33;;;;;;;;;;;;;;;15.93;66.36;95515.00;6173931;28;20323;-69
2023/07/14 01:51:45;;;;;;;;;;;;;;;16.06;65.89;95519.84;6174279;28;19922;-69
2023/07/14 01:55:00;;;;;;;;;;;;;;;16.22;65.47;95510.19;6140754;28;19933;-70
2023/07/14 01:58:05;;;;;;;;;;;;;;;16.30;65.05;95512.84;6173514;28;20277;-70
2023/07/14 02:01:10;;;;;;;;;;;;;;;16.31;65.16;95506.56;6174032;28;19925;-70
2023/07/14 02:04:20;;;;;;;;;;;;;;;16.40;64.81;95508.19;6173480;28;20315;-70
2023/07/14 02:07:25;;;;;;;;;;;;;;;16.52;64.62;95506.84;6173586;28;20396;-70
2023/07/14 02:10:27;;;;;;;;;;;;;;;16.63;64.76;95508.31;6156196;28;19965;-70
2023/07/14 02:13:29;;;;;;;;;;;;;;;16.74;64.05;95515.09;6172475;28;19918;-69
2023/07/14 02:16:33;;;;;;;;;;;;;;;16.80;64.03;95512.59;6172440;28;20398;-70
2023/07/14 02:19:34;;;;;;;;;;;;;;;16.78;64.46;95509.28;6137676;28;19930;-69
2023/07/14 02:22:41;;;;;;;;;;;;;;;16.79;64.09;95518.09;6125622;29;19922;-70
2023/07/14 02:25:43;;;;;;;;;;;;;;;16.78;64.40;95505.78;6124942;29;20420;-70
2023/07/14 02:28:45;;;;;;;;;;;;;;;16.81;64.34;95510.75;6125714;29;19922;-69
2023/07/14 02:31:47;;;;;;;;;;;;;;;16.83;64.48;95504.28;6125194;29;19922;-69
2023/07/14 02:34:51;;;;;;;;;;;;;;;16.91;64.37;95498.13;6125099;29;20381;-70
2023/07/14 02:38:04;;;;;;;;;;;;;;;16.91;64.08;95498.13;6124689;29;20297;-71
2023/07/14 02:41:19;;;;;;;;;;;;;;;16.91;64.23;95495.47;6124971;29;19922;-70
2023/07/14 02:44:41;;;;;;;;;;;;;;;16.94;64.08;95495.09;6125137;29;20002;-70
2023/07/14 02:47:45;;;;;;;;;;;;;;;16.87;64.20;95499.47;6124878;29;19923;-71
2023/07/14 02:50:49;;;;;;;;;;;;;;;16.70;64.54;95471.25;6123675;29;19930;-70
2023/07/14 02:53:52;;;;;;;;;;;;;;;16.82;64.65;95496.50;6125161;29;20423;-70
2023/07/14 02:57:03;;;;;;;;;;;;;;;16.85;64.44;95495.31;6123679;29;19923;-69
2023/07/14 03:00:07;;;;;;;;;;;;;;;16.89;64.15;95496.63;6125036;29;20409;-69
2023/07/14 03:03:12;;;;;;;;;;;;;;;16.79;64.31;95495.00;6125202;29;19922;-70
2023/07/14 03:06:15;;;;;;;;;;;;;;;16.80;64.33;95498.50;6124664;29;20013;-71
2023/07/14 03:09:19;;;;;;;;;;;;;;;16.63;64.74;95494.19;6124669;29;20042;-70
2023/07/14 03:12:22;;;;;;;;;;;;;;;16.34;65.29;95492.94;6124809;29;19922;-69
2023/07/14 03:15:26;;;;;;;;;;;;;;;16.19;66.07;95494.59;6122996;29;19923;-70
2023/07/14 03:18:29;;;;;;;;;;;;;;;15.85;66.93;95487.66;6124717;28;19926;-70
2023/07/14 03:21:35;;;;;;;;;;;;;;;15.64;67.64;95486.31;6172385;28;19929;-69
2023/07/14 03:24:36;;;;;;;;;;;;;;;15.61;68.26;95476.03;6172318;28;20360;-69
2023/07/14 03:27:40;;;;;;;;;;;;;;;15.63;69.65;95474.06;6171166;28;19922;-70
2023/07/14 03:30:41;;;;;;;;;;;;;;;15.45;70.42;95476.84;6172099;28;19928;-70
2023/07/14 03:33:45;;;;;;;;;;;;;;;15.26;71.20;95477.16;6155237;28;19922;-69
2023/07/14 03:36:51;;;;;;;;;;;;;;;15.33;71.54;95479.97;6171675;28;20052;-70
2023/07/14 03:39:55;;;;;;;;;;;;;;;15.31;71.80;95479.28;6154393;28;19921;-69
2023/07/14 03:42:59;;;;;;;;;;;;;;;15.39;71.83;95469.53;6171949;28;19922;-71
2023/07/14 03:46:05;;;;;;;;;;;;;;;15.56;71.85;95481.00;6171619;28;19922;-70
2023/07/14 03:49:06;;;;;;;;;;;;;;;15.54;71.47;95477.69;6171727;28;19926;-70
2023/07/14 03:52:10;;;;;;;;;;;;;;;15.71;70.96;95471.44;6171881;28;19926;-69
2023/07/14 03:55:16;;;;;;;;;;;;;;;15.68;71.05;95466.47;6172065;28;19921;-70
2023/07/14 03:58:17;;;;;;;;;;;;;;;15.88;70.34;95466.09;6171364;28;19922;-71
2023/07/14 04:01:21;;;;;;;;;;;;;;;16.09;70.40;95466.44;6154508;28;19921;-70
2023/07/14 04:04:26;;;;;;;;;;;;;;;16.15;69.87;95465.75;6171851;28;19922;-70
2023/07/14 04:07:27;;;;;;;;;;;;;;;16.22;70.02;95454.47;6171172;28;20012;-70
2023/07/14 04:10:28;;;;;;;;;;;;;;;16.21;69.90;95455.47;6171519;28;19977;-69
2023/07/14 04:13:32;;;;;;;;;;;;;;;16.27;69.43;95460.09;6171792;28;20311;-70
2023/07/14 04:16:35;;;;;;;;;;;;;;;16.31;69.39;95450.81;6171321;28;19922;-70
2023/07/14 04:19:39;;;;;;;;;;;;;;;16.51;69.00;95454.75;6171329;28;19922;-70
2023/07/14 04:22:41;;;;;;;;;;;;;;;16.84;68.25;95457.28;6154029;28;20010;-68
2023/07/14 04:25:44;;;;;;;;;;;;;;;17.24;67.18;95453.59;6171523;28;19918;-69
2023/07/14 04:28:48;;;;;;;;;;;;;;;17.51;66.04;95454.91;6171528;28;19922;-70
2023/07/14 04:31:49;;;;;;;;;;;;;;;17.86;64.73;95452.69;6154079;28;19929;-69
2023/07/14 04:34:52;;;;;;;;;;;;;;;18.23;64.00;95448.38;6171468;28;19922;-70
2023/07/14 04:37:55;;;;;;;;;;;;;;;18.58;63.46;95451.31;6171009;28;20020;-70
2023/07/14 04:41:00;;;;;;;;;;;;;;;19.05;61.35;95442.94;6172015;28;20016;-69
2023/07/14 04:44:06;;;;;;;;;;;;;;;19.40;60.92;95447.63;6175285;28;19937;-70
2023/07/14 04:47:07;;;;;;;;;;;;;;;19.79;58.68;95459.72;6174945;28;20439;-71
2023/07/14 04:50:09;;;;;;;;;;;;;;;19.79;57.47;95459.72;6174964;28;19922;-70
2023/07/14 04:53:13;;;;;;;;;;;;;;;19.58;57.33;95458.69;6158261;28;19922;-70
2023/07/14 04:56:16;;;;;;;;;;;;;;;19.48;57.14;95452.84;6175123;28;19933;-70
2023/07/14 04:59:18;;;;;;;;;;;;;;;19.44;57.36;95438.22;6175281;28;19934;-71
2023/07/14 05:02:21;;;;;;;;;;;;;;;19.56;57.06;95444.75;6175447;28;19926;-69
2023/07/14 05:05:23;;;;;;;;;;;;;;;19.71;57.01;95448.19;6173852;28;19922;-70
2023/07/14 05:08:27;;;;;;;;;;;;;;;19.89;56.21;95439.72;6174082;28;20296;-71
2023/07/14 05:11:28;;;;;;;;;;;;;;;19.99;55.74;95433.25;6174436;28;19928;-71
2023/07/14 05:14:29;;;;;;;;;;;;;;;20.18;54.89;95438.72;6174964;28;19929;-71
2023/07/14 05:17:35;;;;;;;;;;;;;;;20.28;54.77;95435.72;6174880;28;19921;-71
2023/07/14 05:20:41;;;;;;;;;;;;;;;20.65;53.09;95446.25;6174697;28;19922;-71
2023/07/14 05:23:42;;;;;;;;;;;;;;;20.98;52.36;95446.44;6174097;28;19990;-70
2023/07/14 05:26:45;;;;;;;;;;;;;;;21.63;50.78;95447.69;6174474;28;19928;-70
2023/07/14 05:29:53;;;;;;;;;;;;;;;22.31;49.57;95434.16;6174749;28;19921;-70
2023/07/14 05:32:57;;;;;;;;;;;;;;;23.04;47.58;95439.38;6174549;28;19929;-71
2023/07/14 05:36:01;;;;;;;;;;;;;;;23.66;45.93;95423.53;6174290;28;20455;-70
2023/07/14 05:39:07;;;;;;;;;;;;;;;23.90;44.49;95423.84;6156918;28;20050;-71
2023/07/14 05:42:08;;;;;;;;;;;;;;;23.93;42.55;95432.28;6174286;28;19929;-70
2023/07/14 05:45:12;;;;;;;;;;;;;;;23.92;43.32;95429.81;6174067;28;19922;-70
2023/07/14 05:48:20;;;;;;;;;;;;;;;23.92;43.64;95430.66;6173326;28;20578;-70
2023/07/14 05:51:21;;;;;;;;;;;;;;;23.63;43.82;95437.41;6173878;28;19922;-71
2023/07/14 05:54:25;;;;;;;;;;;;;;;23.24;44.27;95443.81;6172924;28;20312;-70
2023/07/14 05:57:31;;;;;;;;;;;;;;;22.92;43.80;95440.19;6173892;28;20304;-70
2023/07/14 06:00:38;;;;;;;;;;;;;;;22.69;43.85;95448.72;6172999;28;19953;-71
2023/07/14 06:03:44;;;;;;;;;;;;;;;22.72;43.47;95435.72;6174006;28;19929;-70
2023/07/14 06:06:49;;;;;;;;;;;;;;;22.65;43.62;95434.94;6173688;28;19922;-71
2023/07/14 06:09:52;;;;;;;;;;;;;;;22.70;43.47;95432.41;6172966;28;20415;-70
2023/07/14 06:12:55;;;;;;;;;;;;;;;22.55;44.19;95434.53;6173632;28;19929;-70
2023/07/14 06:16:01;;;;;;;;;;;;;;;23.02;43.05;95432.56;6173464;28;19922;-69
2023/07/14 06:19:07;;;;;;;;;;;;;;;23.07;42.32;95427.38;6173242;28;19928;-70
2023/07/14 06:22:17;;;;;;;;;;;;;;;22.84;43.04;95434.06;6172971;28;19926;-70
2023/07/14 06:25:18;;;;;;;;;;;;;;;22.77;43.20;95430.56;6155685;28;20040;-70
2023/07/14 06:28:27;;;;;;;;;;;;;;;22.66;43.53;95435.75;6173237;28;19926;-71
2023/07/14 06:31:28;;;;;;;;;;;;;;;22.75;42.86;95429.94;6172487;28;19946;-70
2023/07/14 06:34:30;;;;;;;;;;;;;;;23.00;42.65;95431.94;6172436;28;19977;-71
2023/07/14 06:37:34;;;;;;;;;;;;;;;23.06;42.49;95437.28;6172940;28;19922;-71
2023/07/14 06:41:14;;;;;;;;;;;;;;;22.83;42.08;95435.06;6172854;28;19922;-71
2023/07/14 06:44:17;;;;;;;;;;;;;;;22.66;42.19;95433.88;6155042;28;19933;-70
2023/07/14 06:47:26;;;;;;;;;;;;;;;22.81;41.10;95433.63;6172995;28;19922;-70
2023/07/14 06:50:27;;;;;;;;;;;;;;;22.58;41.59;95424.19;6172291;28;20384;-71
2023/07/14 06:53:36;;;;;;;;;;;;;;;22.50;41.95;95416.38;6172780;28;20016;-70
2023/07/14 06:56:39;;;;;;;;;;;;;;;22.63;42.10;95432.44;6172242;28;20423;-71
2023/07/14 06:59:41;;;;;;;;;;;;;;;23.16;41.33;95425.28;6172281;28;19922;-71
2023/07/14 07:02:44;;;;;;;;;;;;;;;23.98;39.38;95420.91;6172508;28;19922;-69
2023/07/14 07:05:45;;;;;;;;;;;;;;;24.52;38.39;95430.16;6171548;28;20416;-70
2023/07/14 07:08:52;;;;;;;;;;;;;;;24.99;38.08;95440.41;6171805;28;20002;-72
2023/07/14 07:12:01;;;;;;;;;;;;;;;25.09;37.57;95425.41;6172527;28;19956;-70
2023/07/14 07:15:05;;;;;;;;;;;;;;;25.39;37.44;95429.19;6172094;28;20029;-71
2023/07/14 07:18:11;;;;;;;;;;;;;;;26.08;35.89;95432.38;6172076;28;19922;-71
2023/07/14 07:21:15;;;;;;;;;;;;;;;26.18;35.98;95440.69;6172166;28;19922;-71
2023/07/14 07:24:16;;;;;;;;;;;;;;;26.58;34.87;95445.44;6171891;28;19921;-72
2023/07/14 07:27:20;;;;;;;;;;;;;;;26.34;34.67;95441.91;6172195;28;20064;-71
2023/07/14 07:30:26;;;;;;;;;;;;;;;25.98;35.22;95444.53;6171734;28;20012;-71
2023/07/14 07:33:32;;;;;;;;;;;;;;;25.54;36.14;95438.53;6172330;28;19922;-71
2023/07/14 07:36:33;;;;;;;;;;;;;;;25.44;36.34;95443.63;6171821;28;20008;-71
2023/07/14 07:39:39;;;;;;;;;;;;;;;24.77;36.88;95448.09;6172036;28;19922;-71
2023/07/14 07:42:45;;;;;;;;;;;;;;;23.88;38.25;95433.97;6172153;28;20006;-71
2023/07/14 07:45:48;;;;;;;;;;;;;;;23.42;39.14;95425.16;6155164;28;19922;-71
2023/07/14 07:48:54;;;;;;;;;;;;;;;23.58;38.93;95434.56;6172094;28;20300;-71
2023/07/14 07:51:57;;;;;;;;;;;;;;;24.02;37.66;95424.78;6171074;28;20017;-71
2023/07/14 07:54:58;;;;;;;;;;;;;;;24.01;37.74;95428.53;6171672;28;19922;-71
2023/07/14 07:58:02;;;;;;;;;;;;;;;24.31;37.66;95417.91;6171348;28;20106;-70
2023/07/14 08:01:13;;;;;;;;;;;;;;;25.22;35.92;95423.59;6154969;28;20465;-70
2023/07/14 08:04:18;;;;;;;;;;;;;;;25.78;35.15;95443.97;6171995;28;19921;-71
2023/07/14 08:07:21;;;;;;;;;;;;;;;25.16;35.48;95432.59;6171435;28;20316;-71
2023/07/14 08:10:22;;;;;;;;;;;;;;;24.22;37.95;95423.78;6171073;28;19929;-70
2023/07/14 08:13:29;;;;;;;;;;;;;;;23.55;39.01;95429.59;6171805;28;20284;-70
2023/07/14 08:16:34;;;;;;;;;;;;;;;23.15;39.77;95451.28;6172675;28;19922;-71
2023/07/14 08:19:36;;;;;;;;;;;;;;;22.84;40.24;95438.56;6175588;28;19922;-71
2023/07/14 08:22:37;;;;;;;;;;;;;;;22.52;41.01;95434.94;6176134;28;19929;-71
2023/07/14 08:25:43;;;;;;;;;;;;;;;22.35;41.77;95430.00;6159128;28;19922;-70
2023/07/14 08:28:47;;;;;;;;;;;;;;;22.24;42.23;95433.31;6175595;28;19921;-69
2023/07/14 08:31:50;;;;;;;;;;;;;;;22.07;42.76;95440.91;6175200;28;19957;-71
2023/07/14 08:34:54;;;;;;;;;;;;;;;21.66;43.48;95446.47;6175066;28;20015;-70
2023/07/14 08:37:57;;;;;;;;;;;;;;;21.60;43.89;95448.09;6175760;28;20483;-71
2023/07/14 08:41:09;;;;;;;;;;;;;;;21.21;44.84;95443.44;6176039;28;19922;-71
2023/07/14 08:44:20;;;;;;;;;;;;;;;21.04;45.14;95449.13;6175428;28;19945;-71
2023/07/14 08:47:29;;;;;;;;;;;;;;;20.85;45.58;95455.19;6175468;28;20343;-71
2023/07/14 08:50:30;;;;;;;;;;;;;;;20.82;45.79;95451.06;6174563;28;19929;-72
2023/07/14 08:53:35;;;;;;;;;;;;;;;20.56;46.55;95453.59;6175541;28;19922;-70
2023/07/14 08:56:37;;;;;;;;;;;;;;;20.38;47.09;95448.72;6174492;28;19921;-70
2023/07/14 08:59:41;;;;;;;;;;;;;;;20.44;47.15;95458.63;6175566;28;19922;-71
2023/07/14 09:02:52;;;;;;;;;;;;;;;20.41;47.14;95459.03;6175269;28;19921;-71
2023/07/14 09:05:58;;;;;;;;;;;;;;;20.38;47.21;95462.91;6175297;28;20423;-71
2023/07/14 09:09:16;;;;;;;;;;;;;;;20.68;46.70;95459.22;6175295;28;19933;-71
2023/07/14 09:12:22;;;;;;;;;;;;;;;20.77;46.75;95469.53;6175250;28;19921;-71
2023/07/14 09:15:28;;;;;;;;;;;;;;;21.00;46.19;95463.06;6175162;28;20493;-72
2023/07/14 09:18:36;;;;;;;;;;;;;;;21.27;45.78;95472.06;6174724;28;19922;-71
2023/07/14 09:21:39;;;;;;;;;;;;;;;21.29;45.77;95464.66;6174878;28;19950;-70
2023/07/14 09:24:52;;;;;;;;;;;;;;;21.32;45.54;95474.97;6174405;28;19922;-70
2023/07/14 09:27:53;;;;;;;;;;;;;;;21.27;45.55;95466.69;6157361;28;19922;-71
2023/07/14 09:30:55;;;;;;;;;;;;;;;21.36;45.53;95468.16;6174738;28;20392;-71
2023/07/14 09:34:00;;;;;;;;;;;;;;;21.51;45.19;95466.19;6174783;28;19922;-72
2023/07/14 09:37:08;;;;;;;;;;;;;;;21.64;44.86;95472.59;6174598;28;19929;-71
2023/07/14 09:40:17;;;;;;;;;;;;;;;21.45;45.20;95466.97;6174479;28;19926;-71
2023/07/14 09:43:20;;;;;;;;;;;;;;;21.38;45.51;95476.03;6174273;28;19929;-70
2023/07/14 09:46:24;;;;;;;;;;;;;;;21.40;45.37;95465.94;6174333;28;19922;-71
2023/07/14 09:49:30;;;;;;;;;;;;;;;21.52;45.44;95465.16;6174002;28;19928;-72
2023/07/14 09:52:47;;;;;;;;;;;;;;;21.56;45.60;95467.44;6173305;28;19961;-71
2023/07/14 09:55:59;;;;;;;;;;;;;;;21.40;45.72;95472.13;6173946;28;19922;-70
2023/07/14 09:59:08;;;;;;;;;;;;;;;21.30;46.03;95479.66;6173940;28;20328;-71
2023/07/14 10:02:20;;;;;;;;;;;;;;;21.35;46.25;95484.44;6174159;28;19922;-70
2023/07/14 10:05:30;;;;;;;;;;;;;;;21.21;46.12;95486.22;6173859;28;20430;-71
2023/07/14 10:08:35;;;;;;;;;;;;;;;21.21;45.62;95486.22;6173266;28;19922;-70
2023/07/14 10:11:44;;;;;;;;;;;;;;;21.10;46.05;95486.78;6172905;28;20056;-70
2023/07/14 10:14:49;;;;;;;;;;;;;;;20.91;46.73;95483.81;6173509;28;19922;-70
2023/07/14 10:17:54;;;;;;;;;;;;;;;20.58;47.23;95484.47;6173660;28;20315;-70
2023/07/14 10:21:02;;;;;;;;;;;;;;;20.32;47.74;95481.53;6173267;28;20001;-71
2023/07/14 10:24:07;;;;;;;;;;;;;;;20.27;47.91;95483.97;6173466;28;19929;-70
2023/07/14 10:27:16;;;;;;;;;;;;;;;20.33;47.65;95488.56;6173156;28;20295;-70
2023/07/14 10:30:33;;;;;;;;;;;;;;;20.13;48.10;95488.41;6173349;28;19925;-70
2023/07/14 10:33:47;;;;;;;;;;;;;;;19.99;48.65;95484.78;6173135;28;19922;-72
2023/07/14 10:36:57;;;;;;;;;;;;;;;19.95;49.08;95481.66;6173268;28;19926;-70
2023/07/14 10:40:11;;;;;;;;;;;;;;;20.00;48.95;95478.41;6172579;28;19922;-71
2023/07/14 10:43:15;;;;;;;;;;;;;;;20.33;48.27;95486.72;6172918;28;20447;-70
2023/07/14 10:46:23;;;;;;;;;;;;;;;20.59;46.69;95488.78;6173044;28;19929;-71
2023/07/14 10:49:44;;;;;;;;;;;;;;;20.74;46.85;95485.16;6173163;28;19928;-69
2023/07/14 10:52:53;;;;;;;;;;;;;;;21.00;46.81;95485.28;6172904;28;19980;-69
2023/07/14 10:56:02;;;;;;;;;;;;;;;21.13;46.35;95478.38;6172873;28;20412;-71
2023/07/14 10:59:21;;;;;;;;;;;;;;;21.14;46.19;95486.19;6172120;28;19922;-72
2023/07/14 11:02:24;;;;;;;;;;;;;;;21.31;45.79;95489.34;6171615;28;19922;-70
2023/07/14 11:05:26;;;;;;;;;;;;;;;21.83;44.48;95482.53;6172877;28;19929;-70
2023/07/14 11:08:29;;;;;;;;;;;;;;;22.05;44.24;95495.72;6172187;28;19965;-70
2023/07/14 11:11:41;;;;;;;;;;;;;;;22.21;43.84;95491.84;6172714;28;19945;-70
2023/07/14 11:14:48;;;;;;;;;;;;;;;22.98;42.67;95493.03;6172394;28;19928;-70
2023/07/14 11:18:12;;;;;;;;;;;;;;;23.86;40.49;95485.22;6171981;28;19921;-70
2023/07/14 11:21:21;;;;;;;;;;;;;;;24.30;39.77;95490.72;6172067;28;19951;-70
2023/07/14 11:24:29;;;;;;;;;;;;;;;25.09;38.40;95492.69;6154984;28;19948;-70
2023/07/14 11:27:40;;;;;;;;;;;;;;;25.62;37.33;95490.41;6171602;28;20020;-70
2023/07/14 11:30:51;;;;;;;;;;;;;;;25.10;37.66;95491.63;6172424;28;20008;-70
2023/07/14 11:33:52;;;;;;;;;;;;;;;24.48;38.39;95496.16;6171780;28;19922;-69
2023/07/14 11:36:59;;;;;;;;;;;;;;;24.19;38.84;95495.75;6171786;28;19922;-71
2023/07/14 11:40:11;;;;;;;;;;;;;;;23.93;38.40;95490.56;6171930;28;19922;-71
2023/07/14 11:43:22;;;;;;;;;;;;;;;23.61;38.86;95490.53;6154836;28;20021;-70
2023/07/14 11:46:27;;;;;;;;;;;;;;;23.28;39.78;95504.91;6171688;28;19922;-72
2023/07/14 11:49:37;;;;;;;;;;;;;;;23.09;39.99;95505.78;6171861;28;19921;-70
2023/07/14 11:52:40;;;;;;;;;;;;;;;22.88;40.32;95492.63;6176355;28;19922;-71
2023/07/14 11:55:41;;;;;;;;;;;;;;;22.81;40.35;95488.06;6176441;28;19972;-70
2023/07/14 11:58:51;;;;;;;;;;;;;;;22.70;40.98;95491.41;6176871;28;19922;-71
2023/07/14 12:01:54;;;;;;;;;;;;;;;22.65;41.56;95483.19;6176176;28;20459;-71
2023/07/14 12:05:20;;;;;;;;;;;;;;;22.72;41.53;95483.97;6176795;28;20012;-70
2023/07/14 12:08:24;;;;;;;;;;;;;;;22.99;41.40;95489.34;6175701;28;20063;-71
2023/07/14 12:11:29;;;;;;;;;;;;;;;23.10;40.72;95486.00;6158712;28;19921;-69
2023/07/14 12:14:36;;;;;;;;;;;;;;;23.05;40.62;95472.38;6176335;28;20028;-71
2023/07/14 12:17:45;;;;;;;;;;;;;;;22.98;40.52;95490.34;6176090;28;19922;-71
2023/07/14 12:20:48;;;;;;;;;;;;;;;22.90;40.71;95486.03;6175081;28;19929;-71
2023/07/14 12:23:52;;;;;;;;;;;;;;;22.74;40.88;95476.56;6175565;28;19969;-70
2023/07/14 12:27:21;;;;;;;;;;;;;;;22.71;41.03;95473.47;6175922;28;19922;-71
2023/07/14 12:30:27;;;;;;;;;;;;;;;22.77;40.82;95476.13;6173430;28;19922;-71
2023/07/14 12:33:29;;;;;;;;;;;;;;;22.74;41.05;95465.84;6175357;28;19948;-70
2023/07/14 12:36:31;;;;;;;;;;;;;;;22.69;41.20;95473.69;6175390;28;20012;-71
2023/07/14 12:39:56;;;;;;;;;;;;;;;22.85;41.01;95473.22;6175868;28;19964;-70
2023/07/14 12:42:58;;;;;;;;;;;;;;;23.13;40.28;95485.56;6174958;28;19930;-70
2023/07/14 12:46:10;;;;;;;;;;;;;;;23.33;40.03;95479.31;6174831;28;19992;-70
2023/07/14 12:49:14;;;;;;;;;;;;;;;23.48;39.72;95482.53;6174721;28;20061;-69
2023/07/14 12:52:17;;;;;;;;;;;;;;;23.69;39.36;95482.22;6174905;28;20506;-71
2023/07/14 12:55:23;;;;;;;;;;;;;;;23.70;38.92;95480.34;6174418;28;20313;-71
2023/07/14 12:58:27;;;;;;;;;;;;;;;23.63;39.00;95480.38;6175167;28;19921;-71
2023/07/14 13:01:33;;;;;;;;;;;;;;;23.28;39.84;95486.13;6175072;28;19922;-70
2023/07/14 13:04:37;;;;;;;;;;;;;;;23.00;40.64;95491.78;6174929;28;20314;-71
2023/07/14 13:07:51;;;;;;;;;;;;;;;22.67;40.86;95489.13;6175036;28;19921;-71
2023/07/14 13:10:57;;;;;;;;;;;;;;;22.41;41.17;95487.31;6175002;28;19922;-70
2023/07/14 13:14:02;;;;;;;;;;;;;;;22.33;41.10;95495.56;6156879;28;20343;-71
2023/07/14 13:17:17;;;;;;;;;;;;;;;22.15;41.58;95496.97;6174729;28;19985;-71
2023/07/14 13:20:25;;;;;;;;;;;;;;;22.04;42.01;95496.75;6174495;28;19922;-71
2023/07/14 13:23:31;;;;;;;;;;;;;;;21.93;41.94;95501.69;6174769;28;20371;-71
2023/07/14 13:26:54;;;;;;;;;;;;;;;21.68;42.47;95505.97;6174757;28;19922;-71
2023/07/14 13:30:00;;;;;;;;;;;;;;;21.46;43.21;95508.78;6174902;28;20314;-71
2023/07/14 13:33:14;;;;;;;;;;;;;;;21.41;43.58;95505.06;6174414;28;20331;-70
2023/07/14 13:36:23;;;;;;;;;;;;;;;21.42;43.19;95499.50;6173962;28;19929;-70
2023/07/14 13:39:28;;;;;;;;;;;;;;;21.25;43.77;95508.88;6174622;28;20029;-71
2023/07/14 13:42:33;;;;;;;;;;;;;;;21.32;43.38;95507.06;6174364;28;19933;-71
2023/07/14 13:45:42;;;;;;;;;;;;;;;21.14;43.79;95506.75;6174234;28;19933;-70
2023/07/14 13:48:46;;;;;;;;;;;;;;;21.15;43.68;95500.41;6174168;28;19921;-70
2023/07/14 13:51:50;;;;;;;;;;;;;;;21.26;43.50;95505.19;6173977;28;19922;-71
2023/07/14 13:54:55;;;;;;;;;;;;;;;21.67;42.99;95507.81;6174188;28;20036;-71
2023/07/14 13:57:56;;;;;;;;;;;;;;;22.11;42.17;95505.66;6173769;28;19961;-71
2023/07/14 14:01:00;;;;;;;;;;;;;;;22.31;41.70;95505.69;6174015;28;20352;-70
2023/07/14 14:04:02;;;;;;;;;;;;;;;22.33;41.76;95517.00;6174066;28;19918;-71
2023/07/14 14:07:03;;;;;;;;;;;;;;;22.28;41.70;95504.25;6173739;28;20009;-70
2023/07/14 14:10:08;;;;;;;;;;;;;;;22.04;42.48;95499.44;6173931;28;19922;-70
2023/07/14 14:13:15;;;;;;;;;;;;;;;21.96;42.75;95498.59;6173605;28;19922;-71
2023/07/14 14:16:20;;;;;;;;;;;;;;;21.68;43.05;95498.78;6173085;28;19922;-71
2023/07/14 14:19:24;;;;;;;;;;;;;;;21.34;43.79;95491.59;6173330;28;19922;-71
2023/07/14 14:22:27;;;;;;;;;;;;;;;21.21;43.96;95496.94;6172951;28;19929;-71
2023/07/14 14:25:28;;;;;;;;;;;;;;;21.10;44.09;95490.28;6172271;28;19945;-71
2023/07/14 14:28:33;;;;;;;;;;;;;;;20.95;44.17;95490.44;6173347;28;19922;-71
2023/07/14 14:31:37;;;;;;;;;;;;;;;20.91;44.50;95491.84;6173346;28;20388;-70
2023/07/14 14:34:40;;;;;;;;;;;;;;;20.97;44.42;95480.34;6172670;28;19922;-70
2023/07/14 14:37:54;;;;;;;;;;;;;;;21.26;43.96;95491.81;6316268;28;19932;-70
2023/07/14 14:40:55;;;;;;;;;;;;;;;21.01;44.09;95486.97;6315969;28;20055;-70
2023/07/14 14:44:05;;;;;;;;;;;;;;;20.71;44.67;95496.25;6315869;28;19916;-70
2023/07/14 14:47:13;;;;;;;;;;;;;;;20.61;44.85;95500.09;6316097;28;19924;-70
2023/07/14 14:50:17;;;;;;;;;;;;;;;20.60;44.91;95489.59;6316113;28;19924;-69
2023/07/14 14:53:21;;;;;;;;;;;;;;;20.68;44.61;95493.97;6297263;28;20018;-70
2023/07/14 14:56:28;;;;;;;;;;;;;;;20.83;43.79;95505.34;6315961;28;19931;-71
2023/07/14 14:59:34;;;;;;;;;;;;;;;20.71;43.43;95498.91;6316057;28;19931;-70
2023/07/14 15:02:38;;;;;;;;;;;;;;;20.56;43.57;95510.53;6298278;28;19925;-71
2023/07/14 15:05:39;;;;;;;;;;;;;;;20.56;43.55;95507.88;6316009;28;19930;-70
2023/07/14 15:08:40;;;;;;;;;;;;;;;20.38;44.04;95507.47;6315899;28;19924;-69
2023/07/14 15:11:45;;;;;;;;;;;;;;;20.14;44.66;95501.53;6315998;28;20019;-71
2023/07/14 15:14:49;;;;;;;;;;;;;;;20.04;44.95;95506.41;6315675;28;19924;-72
2023/07/14 15:17:55;;;;;;;;;;;;;;;19.96;45.22;95525.22;6315501;28;19924;-70
2023/07/14 15:21:10;;;;;;;;;;;;;;;19.74;45.65;95511.84;6315574;28;20390;-71
2023/07/14 15:24:16;;;;;;;;;;;;;;;19.56;45.76;95530.13;6315275;28;20389;-70
2023/07/14 15:27:34;;;;;;;;;;;;;;;19.39;46.24;95524.16;6314799;28;19939;-71
2023/07/14 15:30:39;;;;;;;;;;;;;;;19.33;46.56;95508.88;6315566;28;20061;-71
2023/07/14 15:33:42;;;;;;;;;;;;;;;19.24;46.59;95521.50;6314810;28;19924;-70
2023/07/14 15:36:46;;;;;;;;;;;;;;;19.24;46.54;95510.84;6315143;28;19924;-70
2023/07/14 15:39:49;;;;;;;;;;;;;;;19.01;47.07;95505.63;6314940;28;19931;-71
2023/07/14 15:42:53;;;;;;;;;;;;;;;18.80;47.48;95509.06;6314893;28;20069;-70
2023/07/14 15:45:56;;;;;;;;;;;;;;;18.72;48.28;95511.78;6314610;28;20306;-69
2023/07/14 15:48:56;;;;;;;;;;;;;;;18.50;48.68;95528.66;6298555;28;19924;-69
2023/07/14 15:52:03;;;;;;;;;;;;;;;18.29;48.67;95524.84;6298155;28;20362;-71
2023/07/14 15:55:12;;;;;;;;;;;;;;;18.19;49.21;95529.59;6298029;28;20001;-71
2023/07/14 15:58:15;;;;;;;;;;;;;;;18.07;49.54;95521.22;6297278;28;19935;-70
2023/07/14 16:01:21;;;;;;;;;;;;;;;17.96;49.90;95526.94;6297875;28;19924;-70
2023/07/14 16:04:25;;;;;;;;;;;;;;;17.81;50.23;95523.41;6297980;28;19924;-72
2023/07/14 16:07:26;;;;;;;;;;;;;;;17.68;50.63;95521.31;6297806;28;20006;-70